Time;durP1;ratioP1;P1;durP2;ratioP2;P2;SDS_P1;SDS_P2;PMS_P1;PMS_P2;Temp;Humidity;BMP_temperature;BMP_pressure;BME280_temperature;BME280_humidity;BME280_pressure;Samples;Min_cycle;Max_cycle;Signal;HPM_P1;HPM_P2
2023/03/09 00:02:54;;;;;;;0.30;0.30;;;10.20;99.90;;;;;;6186067;28;20050;-82
2023/03/09 00:05:58;;;;;;;0.30;0.30;;;9.90;99.90;;;;;;6184725;28;20182;-80
2023/03/09 00:08:59;;;;;;;0.10;0.10;;;9.80;99.90;;;;;;6182724;28;20049;-80
2023/03/09 00:12:03;;;;;;;0.30;0.30;;;9.70;99.90;;;;;;6185684;28;20120;-80
2023/03/09 00:15:05;;;;;;;0.22;0.22;;;9.70;99.90;;;;;;6180844;28;20425;-78
2023/03/09 00:18:07;;;;;;;0.20;0.20;;;9.60;99.90;;;;;;6120692;28;20054;-81
2023/03/09 00:21:14;;;;;;;0.38;0.38;;;9.60;99.90;;;;;;6162594;28;20046;-80
2023/03/09 00:24:18;;;;;;;0.30;0.30;;;9.60;99.90;;;;;;6174300;28;20050;-80
2023/03/09 00:27:21;;;;;;;0.20;0.20;;;9.60;99.90;;;;;;6182643;28;20050;-79
2023/03/09 00:30:23;;;;;;;0.30;0.30;;;9.70;99.90;;;;;;6175524;28;20046;-79
2023/03/09 00:33:25;;;;;;;0.20;0.20;;;9.70;99.90;;;;;;6184657;28;20424;-80
2023/03/09 00:36:27;;;;;;;0.30;0.30;;;9.80;99.90;;;;;;6200436;28;20046;-79
2023/03/09 00:39:28;;;;;;;0.22;0.22;;;9.80;99.90;;;;;;6201209;28;20050;-81
2023/03/09 00:42:31;;;;;;;0.30;0.30;;;9.90;99.90;;;;;;6200915;28;20524;-80
2023/03/09 00:45:33;;;;;;;0.20;0.20;;;9.90;99.90;;;;;;6200700;28;20705;-79
2023/03/09 00:48:37;;;;;;;0.30;0.30;;;10.00;99.90;;;;;;6201157;28;20058;-80
2023/03/09 00:51:38;;;;;;;0.40;0.40;;;10.10;99.90;;;;;;6201294;28;20050;-80
2023/03/09 00:54:41;;;;;;;0.30;0.30;;;10.20;99.90;;;;;;6201297;28;20066;-79
2023/03/09 00:57:44;;;;;;;0.20;0.20;;;10.30;99.90;;;;;;6204154;28;20493;-80
2023/03/09 01:00:45;;;;;;;0.30;0.30;;;10.40;99.90;;;;;;6202775;28;20522;-80
2023/03/09 01:03:48;;;;;;;0.20;0.20;;;10.40;99.90;;;;;;6201297;28;20054;-80
2023/03/09 01:06:49;;;;;;;0.25;0.25;;;10.50;99.90;;;;;;6200627;28;20050;-81
2023/03/09 01:09:51;;;;;;;0.10;0.10;;;10.50;99.90;;;;;;6201289;28;20054;-79
2023/03/09 01:12:54;;;;;;;0.22;0.22;;;10.50;99.90;;;;;;6201025;28;20061;-80
2023/03/09 01:15:56;;;;;;;0.30;0.30;;;10.50;99.90;;;;;;6200333;28;20050;-79
2023/03/09 01:18:58;;;;;;;0.30;0.30;;;10.50;99.90;;;;;;6200217;28;20512;-80
2023/03/09 01:21:59;;;;;;;0.20;0.20;;;10.50;99.90;;;;;;6190291;28;20417;-80
2023/03/09 01:25:01;;;;;;;0.30;0.30;;;10.50;99.90;;;;;;6182137;28;20536;-79
2023/03/09 01:28:04;;;;;;;0.25;0.25;;;10.40;99.90;;;;;;6176174;28;20054;-80
2023/03/09 01:31:08;;;;;;;0.20;0.20;;;10.40;99.90;;;;;;6177295;28;20055;-80
2023/03/09 01:34:12;;;;;;;0.32;0.32;;;10.40;99.90;;;;;;6177758;28;20049;-79
2023/03/09 01:37:14;;;;;;;0.30;0.30;;;10.40;99.90;;;;;;6176968;28;20051;-80
2023/03/09 01:40:19;;;;;;;0.20;0.20;;;10.40;99.90;;;;;;6175459;28;20047;-79
2023/03/09 01:43:31;;;;;;;0.28;0.28;;;10.40;99.90;;;;;;6176499;28;20445;-79
2023/03/09 01:46:56;;;;;;;0.22;0.22;;;10.40;99.90;;;;;;6177178;28;20490;-80
2023/03/09 01:49:58;;;;;;;0.30;0.30;;;10.40;99.90;;;;;;6145900;29;20465;-80
2023/03/09 01:53:04;;;;;;;0.22;0.22;;;10.40;99.90;;;;;;6152398;28;20056;-79
2023/03/09 01:56:07;;;;;;;0.90;0.60;;;10.40;99.90;;;;;;6151741;29;20039;-79
2023/03/09 01:59:11;;;;;;;1.27;0.85;;;10.40;99.90;;;;;;6152381;29;20050;-80
2023/03/09 02:02:15;;;;;;;1.23;0.73;;;10.40;99.90;;;;;;6152498;29;20051;-79
2023/03/09 02:05:22;;;;;;;1.15;0.85;;;10.40;99.90;;;;;;6151630;29;20043;-80
2023/03/09 02:08:25;;;;;;;1.02;1.00;;;10.40;99.90;;;;;;6152802;29;20047;-79
2023/03/09 02:11:27;;;;;;;1.17;0.70;;;10.40;99.90;;;;;;6152262;29;20043;-80
2023/03/09 02:14:31;;;;;;;0.85;0.73;;;10.40;99.90;;;;;;6154244;28;20058;-79
2023/03/09 02:17:32;;;;;;;0.50;0.50;;;10.40;99.90;;;;;;6157065;29;20059;-79
2023/03/09 02:20:41;;;;;;;4.53;1.33;;;10.20;99.90;;;;;;6155258;29;20638;-79
2023/03/09 02:23:48;;;;;;;0.88;0.60;;;10.00;99.90;;;;;;6156135;29;20047;-80
2023/03/09 02:26:53;;;;;;;0.47;0.47;;;9.90;99.90;;;;;;6155758;29;20063;-80
2023/03/09 02:29:57;;;;;;;1.88;1.02;;;9.70;99.90;;;;;;6156852;29;20058;-80
2023/03/09 02:33:04;;;;;;;0.30;0.30;;;9.70;99.90;;;;;;6155338;29;20417;-80
2023/03/09 02:36:06;;;;;;;2.20;0.80;;;9.60;99.90;;;;;;6154744;29;20399;-80
2023/03/09 02:39:19;;;;;;;1.52;0.52;;;9.60;99.90;;;;;;6155288;29;20043;-80
2023/03/09 02:42:21;;;;;;;4.60;1.30;;;9.60;99.90;;;;;;6200265;23;20058;-79
2023/03/09 02:45:24;;;;;;;1.98;0.90;;;9.50;99.90;;;;;;6209143;28;20047;-79
2023/03/09 02:48:26;;;;;;;3.33;0.70;;;9.50;99.90;;;;;;6190978;28;20170;-80
2023/03/09 02:51:27;;;;;;;3.15;1.23;;;9.50;99.90;;;;;;6195681;28;20046;-79
2023/03/09 02:54:29;;;;;;;3.10;0.90;;;9.50;99.90;;;;;;6214760;28;20048;-79
2023/03/09 02:57:31;;;;;;;1.90;0.90;;;9.50;99.90;;;;;;6213531;28;20050;-79
2023/03/09 03:00:34;;;;;;;1.25;1.15;;;9.40;99.90;;;;;;6211928;28;20497;-80
2023/03/09 03:03:35;;;;;;;2.17;0.60;;;9.40;99.90;;;;;;6210444;28;20043;-80
2023/03/09 03:06:37;;;;;;;1.02;0.80;;;9.30;99.90;;;;;;6210048;28;20053;-80
2023/03/09 03:09:39;;;;;;;1.52;0.80;;;9.30;99.90;;;;;;6211432;28;20054;-80
2023/03/09 03:12:40;;;;;;;0.55;0.55;;;9.30;99.90;;;;;;6209777;28;20046;-79
2023/03/09 03:15:43;;;;;;;1.90;1.38;;;9.30;99.90;;;;;;6213598;28;20441;-79
2023/03/09 03:18:45;;;;;;;2.55;1.05;;;9.30;99.90;;;;;;6214247;28;20050;-79
2023/03/09 03:21:48;;;;;;;3.85;1.10;;;9.30;99.90;;;;;;6214298;28;20053;-79
2023/03/09 03:24:50;;;;;;;2.83;0.90;;;9.30;99.90;;;;;;6213588;28;20046;-80
2023/03/09 03:27:51;;;;;;;3.35;0.68;;;9.30;99.90;;;;;;6214149;28;20051;-79
2023/03/09 03:30:54;;;;;;;7.75;2.05;;;9.30;99.90;;;;;;6213973;28;20496;-79
2023/03/09 03:33:56;;;;;;;1.13;0.82;;;9.30;99.90;;;;;;6214809;28;20047;-79
2023/03/09 03:36:58;;;;;;;1.40;1.05;;;9.30;99.90;;;;;;6213682;28;20049;-79
2023/03/09 03:39:59;;;;;;;3.95;1.13;;;9.30;99.90;;;;;;6213418;28;20054;-79
2023/03/09 03:43:01;;;;;;;3.97;0.95;;;9.30;99.90;;;;;;6213956;28;20048;-79
2023/03/09 03:46:04;;;;;;;2.05;1.30;;;9.30;99.90;;;;;;6214729;28;20057;-79
2023/03/09 03:49:06;;;;;;;1.25;0.70;;;9.30;99.90;;;;;;6214448;28;20056;-79
2023/03/09 03:52:08;;;;;;;2.38;1.05;;;9.30;99.90;;;;;;6214358;28;20058;-79
2023/03/09 03:55:10;;;;;;;1.30;0.93;;;9.30;99.90;;;;;;6211412;28;20058;-79
2023/03/09 03:58:12;;;;;;;5.82;1.95;;;9.30;99.90;;;;;;6206973;28;20062;-79
2023/03/09 04:01:15;;;;;;;4.05;0.77;;;9.30;99.90;;;;;;6210509;28;20057;-79
2023/03/09 04:04:17;;;;;;;2.63;1.45;;;9.30;99.90;;;;;;6210278;28;20046;-79
2023/03/09 04:07:19;;;;;;;3.20;0.80;;;9.20;99.90;;;;;;6210805;28;20046;-79
2023/03/09 04:10:23;;;;;;;1.88;1.20;;;9.20;99.90;;;;;;6210106;28;20401;-79
2023/03/09 04:13:24;;;;;;;2.45;1.60;;;9.20;99.90;;;;;;6210472;28;20054;-79
2023/03/09 04:16:27;;;;;;;2.83;1.38;;;9.20;99.90;;;;;;6209812;28;20081;-79
2023/03/09 04:19:29;;;;;;;3.10;0.98;;;9.20;99.90;;;;;;6209788;28;20056;-79
2023/03/09 04:22:31;;;;;;;1.50;1.23;;;9.20;99.90;;;;;;6209037;28;20047;-79
2023/03/09 04:25:33;;;;;;;3.92;1.42;;;9.20;99.90;;;;;;6207543;28;20043;-79
2023/03/09 04:28:34;;;;;;;7.10;2.20;;;9.20;99.90;;;;;;6206888;28;20429;-79
2023/03/09 04:31:37;;;;;;;2.22;1.45;;;9.20;99.90;;;;;;6208136;28;20661;-79
2023/03/09 04:34:39;;;;;;;8.68;2.17;;;9.20;99.90;;;;;;6206942;28;20062;-79
2023/03/09 04:37:41;;;;;;;6.47;1.67;;;9.20;99.90;;;;;;6206796;28;20069;-79
2023/03/09 04:40:43;;;;;;;3.40;2.55;;;9.30;99.90;;;;;;6207055;28;20057;-79
2023/03/09 04:43:44;;;;;;;5.38;1.73;;;9.30;99.90;;;;;;6208301;28;20046;-79
2023/03/09 04:46:47;;;;;;;9.30;1.98;;;9.30;99.90;;;;;;6207042;28;20109;-79
2023/03/09 04:49:49;;;;;;;3.42;1.77;;;9.30;99.90;;;;;;6208660;28;20054;-79
2023/03/09 04:52:51;;;;;;;7.35;1.80;;;9.30;99.90;;;;;;6208114;28;20046;-79
2023/03/09 04:55:52;;;;;;;6.95;1.90;;;9.30;99.90;;;;;;6207758;28;20050;-79
2023/03/09 04:58:55;;;;;;;7.30;2.40;;;9.40;99.90;;;;;;6209577;28;20054;-79
2023/03/09 05:01:58;;;;;;;11.25;2.63;;;9.40;99.90;;;;;;6210043;28;20070;-79
2023/03/09 05:04:59;;;;;;;9.13;2.28;;;9.40;99.90;;;;;;6209858;28;20042;-79
2023/03/09 05:08:01;;;;;;;3.40;2.17;;;9.40;99.90;;;;;;6208675;28;20145;-79
2023/03/09 05:11:03;;;;;;;9.60;3.60;;;9.40;99.90;;;;;;6208263;28;20504;-79
2023/03/09 05:14:04;;;;;;;8.60;2.38;;;9.50;99.90;;;;;;6207965;28;20413;-79
2023/03/09 05:17:07;;;;;;;10.77;4.35;;;9.50;99.90;;;;;;6207281;28;20050;-79
2023/03/09 05:20:11;;;;;;;5.00;3.08;;;9.60;99.90;;;;;;6208650;28;20533;-79
2023/03/09 05:23:13;;;;;;;10.63;2.38;;;9.70;99.90;;;;;;6206703;28;20648;-82
2023/03/09 05:26:15;;;;;;;6.32;2.65;;;9.70;99.90;;;;;;6210049;28;20412;-83
2023/03/09 05:29:26;;;;;;;8.60;2.83;;;9.80;99.90;;;;;;6210191;28;20074;-83
2023/03/09 05:32:29;;;;;;;10.43;2.67;;;9.80;99.90;;;;;;6212662;28;20042;-82
2023/03/09 05:35:43;;;;;;;3.88;1.77;;;9.90;99.90;;;;;;6209251;28;20052;-82
2023/03/09 05:38:49;;;;;;;12.40;2.42;;;10.00;99.90;;;;;;6218588;28;20050;-82
2023/03/09 05:41:51;;;;;;;6.32;1.92;;;10.00;99.90;;;;;;6216209;28;20043;-82
2023/03/09 05:48:13;;;;;;;4.43;1.52;;;10.00;99.90;;;;;;6210555;28;20503;-82
2023/03/09 05:51:16;;;;;;;10.68;3.50;;;10.10;99.90;;;;;;6214677;28;20118;-82
2023/03/09 06:01:02;;;;;;;5.68;3.00;;;10.20;99.90;;;;;;6208877;28;20057;-83
2023/03/09 06:04:09;;;;;;;6.72;1.98;;;10.30;99.90;;;;;;6210743;28;20116;-82
2023/03/09 06:07:11;;;;;;;12.82;4.00;;;10.30;99.90;;;;;;6211033;28;20046;-82
2023/03/09 06:10:16;;;;;;;8.23;2.35;;;10.30;99.90;;;;;;6212549;28;20053;-83
2023/03/09 06:13:21;;;;;;;17.52;2.13;;;10.40;99.90;;;;;;6212929;28;20453;-83
2023/03/09 06:16:35;;;;;;;5.68;1.75;;;10.50;99.90;;;;;;6210657;28;20125;-83
2023/03/09 06:19:38;;;;;;;6.63;2.17;;;10.50;99.90;;;;;;6212153;28;20596;-82
2023/03/09 06:22:43;;;;;;;12.52;1.92;;;10.50;99.90;;;;;;6210701;28;20138;-82
2023/03/09 06:25:44;;;;;;;9.27;3.08;;;10.60;99.90;;;;;;6214075;28;20400;-83
2023/03/09 06:28:49;;;;;;;8.77;1.98;;;10.60;99.90;;;;;;6211240;28;20046;-83
2023/03/09 06:31:50;;;;;;;12.27;2.33;;;10.70;99.90;;;;;;6185426;28;20059;-83
2023/03/09 06:34:54;;;;;;;8.63;2.08;;;10.70;99.90;;;;;;6183768;28;20053;-83
2023/03/09 06:37:55;;;;;;;7.78;2.88;;;10.80;99.90;;;;;;6183385;28;20501;-82
2023/03/09 06:40:57;;;;;;;14.77;2.05;;;10.80;99.90;;;;;;6182964;28;20527;-82
2023/03/09 06:44:00;;;;;;;9.88;1.95;;;10.90;99.90;;;;;;6185188;28;20057;-81
2023/03/09 06:47:01;;;;;;;9.68;1.75;;;11.00;99.90;;;;;;6184874;28;20046;-82
2023/03/09 06:50:05;;;;;;;7.95;2.42;;;11.00;99.90;;;;;;6183816;28;20061;-82
2023/03/09 06:53:08;;;;;;;4.45;2.53;;;11.00;99.90;;;;;;6184113;28;20425;-82
2023/03/09 06:56:10;;;;;;;6.25;2.10;;;11.10;99.90;;;;;;6203489;28;20061;-82
2023/03/09 06:59:12;;;;;;;7.72;3.67;;;11.20;99.90;;;;;;6208544;28;20046;-82
2023/03/09 07:02:15;;;;;;;8.60;1.52;;;11.20;99.90;;;;;;6211724;28;20097;-82
2023/03/09 07:05:18;;;;;;;12.45;2.28;;;11.30;99.90;;;;;;6211247;28;20042;-82
2023/03/09 07:08:21;;;;;;;8.48;1.63;;;11.40;99.90;;;;;;6208579;28;20054;-81
2023/03/09 07:11:23;;;;;;;7.28;1.77;;;11.40;99.90;;;;;;6208150;28;20121;-82
2023/03/09 07:14:24;;;;;;;9.07;2.13;;;11.50;99.90;;;;;;6210659;28;20046;-82
2023/03/09 07:17:26;;;;;;;4.88;2.03;;;11.50;99.90;;;;;;6209343;28;20106;-82
2023/03/09 07:20:29;;;;;;;11.55;2.03;;;11.60;99.90;;;;;;6209754;28;20051;-83
2023/03/09 07:23:36;;;;;;;8.50;1.67;;;11.60;99.90;;;;;;6210248;28;20050;-82
2023/03/09 07:26:37;;;;;;;10.18;3.28;;;11.60;99.90;;;;;;6209270;28;20545;-82
2023/03/09 07:29:43;;;;;;;11.65;2.70;;;11.60;99.90;;;;;;6210291;28;20057;-81
2023/03/09 07:32:45;;;;;;;6.72;2.42;;;11.70;99.90;;;;;;6209051;28;20046;-81
2023/03/09 07:35:48;;;;;;;2.92;1.30;;;11.70;99.90;;;;;;6209760;28;20045;-82
2023/03/09 07:38:50;;;;;;;5.53;1.70;;;11.70;99.90;;;;;;6219272;28;20060;-82
2023/03/09 07:41:54;;;;;;;6.80;1.77;;;11.70;99.90;;;;;;6213528;28;20050;-82
2023/03/09 07:44:56;;;;;;;6.32;1.67;;;11.70;99.90;;;;;;6212288;28;20069;-82
2023/03/09 07:47:57;;;;;;;4.03;1.52;;;11.70;99.90;;;;;;6212936;28;20081;-82
2023/03/09 07:51:01;;;;;;;3.72;1.83;;;11.60;99.90;;;;;;6211375;28;20554;-82
2023/03/09 07:54:05;;;;;;;5.03;1.65;;;11.60;99.90;;;;;;6208984;28;20061;-82
2023/03/09 07:57:06;;;;;;;8.02;1.58;;;11.50;99.90;;;;;;6209100;28;20049;-82
2023/03/09 08:00:13;;;;;;;7.88;2.08;;;11.40;99.90;;;;;;6207328;28;20057;-82
2023/03/09 08:03:15;;;;;;;5.50;2.17;;;11.30;99.90;;;;;;6208362;28;20045;-81
2023/03/09 08:06:18;;;;;;;6.47;2.33;;;11.30;99.90;;;;;;6205414;28;20053;-82
2023/03/09 08:09:20;;;;;;;6.55;1.80;;;11.20;99.90;;;;;;6175123;28;20137;-82
2023/03/09 08:12:27;;;;;;;6.70;2.45;;;11.10;99.90;;;;;;6197714;28;20406;-84
2023/03/09 08:15:29;;;;;;;6.93;1.52;;;11.00;99.90;;;;;;6200639;28;20039;-82
2023/03/09 08:18:31;;;;;;;6.93;1.85;;;11.00;99.90;;;;;;6203759;28;20050;-83
2023/03/09 08:21:34;;;;;;;15.95;2.47;;;11.00;99.90;;;;;;6204319;28;20050;-81
2023/03/09 08:24:36;;;;;;;6.63;1.83;;;11.00;99.90;;;;;;6204508;28;20429;-82
2023/03/09 08:27:39;;;;;;;7.65;1.90;;;11.00;99.90;;;;;;6202923;28;20053;-81
2023/03/09 08:30:41;;;;;;;10.63;1.50;;;11.10;99.90;;;;;;6203290;28;20110;-80
2023/03/09 08:33:43;;;;;;;5.45;1.45;;;11.10;99.90;;;;;;6205098;28;20046;-82
2023/03/09 08:36:46;;;;;;;5.70;1.45;;;11.20;99.90;;;;;;6203825;28;20053;-81
2023/03/09 08:39:47;;;;;;;16.58;4.45;;;11.20;99.90;;;;;;6204455;28;20072;-81
2023/03/09 08:42:49;;;;;;;4.72;1.02;;;11.30;99.90;;;;;;6208361;28;20055;-80
2023/03/09 08:45:53;;;;;;;5.03;1.73;;;11.30;99.90;;;;;;6204471;28;20053;-79
2023/03/09 08:48:56;;;;;;;6.72;1.33;;;11.40;99.90;;;;;;6179496;28;20509;-79
2023/03/09 08:51:59;;;;;;;3.22;1.50;;;11.40;99.90;;;;;;6184980;28;20053;-80
2023/03/09 08:55:00;;;;;;;4.07;1.48;;;11.50;99.90;;;;;;6179479;28;20182;-80
2023/03/09 08:58:02;;;;;;;4.00;2.00;;;11.50;99.90;;;;;;6180790;28;20050;-80
2023/03/09 09:01:06;;;;;;;4.22;0.98;;;11.60;99.90;;;;;;6184835;28;20058;-81
2023/03/09 09:04:11;;;;;;;4.57;1.38;;;11.60;99.90;;;;;;6166589;28;20051;-80
2023/03/09 09:07:15;;;;;;;1.48;1.10;;;11.70;99.90;;;;;;6192192;28;20046;-81
2023/03/09 09:10:18;;;;;;;4.55;1.70;;;11.80;99.90;;;;;;6197300;28;20666;-81
2023/03/09 09:13:19;;;;;;;4.82;2.90;;;11.80;99.90;;;;;;6197542;28;20051;-81
2023/03/09 09:16:22;;;;;;;8.45;1.83;;;11.90;99.90;;;;;;6195633;28;20054;-79
2023/03/09 09:19:23;;;;;;;3.22;0.88;;;12.00;99.90;;;;;;6197921;28;20061;-81
2023/03/09 09:22:26;;;;;;;3.33;1.20;;;12.00;99.90;;;;;;6197483;28;20493;-80
2023/03/09 09:25:29;;;;;;;4.43;1.15;;;12.10;99.90;;;;;;6195736;28;20412;-81
2023/03/09 09:28:31;;;;;;;4.18;1.63;;;12.20;99.90;;;;;;6195752;28;20052;-80
2023/03/09 09:31:34;;;;;;;2.72;1.92;;;12.20;99.90;;;;;;6197459;28;20042;-81
2023/03/09 09:34:39;;;;;;;8.35;2.35;;;12.30;99.90;;;;;;6195189;28;20066;-80
2023/03/09 09:37:42;;;;;;;4.80;1.60;;;12.10;99.90;;;;;;6232692;28;20042;-81
2023/03/09 09:40:44;;;;;;;10.20;1.70;;;12.00;99.90;;;;;;6201833;28;20055;-81
2023/03/09 09:43:48;;;;;;;6.85;1.40;;;11.90;99.90;;;;;;6202521;28;20420;-80
2023/03/09 09:46:53;;;;;;;12.25;2.58;;;11.80;99.90;;;;;;6212203;28;20046;-80
2023/03/09 09:50:01;;;;;;;6.32;1.73;;;11.80;99.90;;;;;;6200746;28;20047;-82
2023/03/09 09:53:13;;;;;;;;;;;11.80;99.90;;;;;;6224152;28;20065;-82
2023/03/09 09:56:20;;;;;;;11.00;3.55;;;11.80;99.90;;;;;;6217314;28;19921;-81
2023/03/09 09:59:25;;;;;;;2.05;1.13;;;11.70;99.90;;;;;;6205904;28;20053;-81
2023/03/09 10:02:41;;;;;;;5.97;2.47;;;11.70;99.90;;;;;;6206186;28;20046;-80
2023/03/09 10:05:46;;;;;;;4.73;2.33;;;11.70;99.90;;;;;;6206165;28;20050;-81
2023/03/09 10:08:53;;;;;;;8.35;1.63;;;11.70;99.90;;;;;;6205674;28;20055;-80
2023/03/09 10:11:57;;;;;;;7.97;1.38;;;11.50;99.90;;;;;;6205290;28;20062;-80
2023/03/09 10:15:04;;;;;;;3.78;1.20;;;11.30;99.90;;;;;;6205336;28;20081;-80
2023/03/09 10:18:11;;;;;;;9.45;1.60;;;11.20;99.90;;;;;;6203806;28;20057;-80
2023/03/09 10:21:19;;;;;;;10.68;2.17;;;11.20;99.90;;;;;;6226370;28;20359;-80
2023/03/09 10:24:25;;;;;;;8.55;1.45;;;11.20;99.90;;;;;;6228386;28;20050;-80
2023/03/09 10:27:35;;;;;;;6.40;1.40;;;11.20;99.90;;;;;;6226893;28;20053;-80
2023/03/09 10:30:42;;;;;;;8.52;1.95;;;11.30;99.90;;;;;;6227296;28;20057;-80
2023/03/09 10:33:46;;;;;;;8.80;1.90;;;11.40;99.90;;;;;;6228807;28;20058;-80
2023/03/09 10:36:59;;;;;;;15.00;2.50;;;11.50;99.90;;;;;;6230668;28;20176;-80
2023/03/09 10:40:06;;;;;;;4.63;1.40;;;11.70;99.90;;;;;;6232000;28;20053;-80
2023/03/09 10:43:15;;;;;;;2.45;1.40;;;12.10;99.90;;;;;;6232128;28;20046;-80
2023/03/09 10:46:20;;;;;;;3.47;1.40;;;12.50;99.90;;;;;;6233433;28;20056;-80
2023/03/09 10:49:22;;;;;;;7.95;2.08;;;12.90;99.90;;;;;;6235348;28;20390;-81
2023/03/09 10:52:27;;;;;;;6.00;1.58;;;13.20;99.90;;;;;;6232354;28;20061;-81
2023/03/09 10:55:36;;;;;;;10.18;2.22;;;13.30;99.90;;;;;;6233549;28;20049;-81
2023/03/09 10:58:38;;;;;;;4.45;1.55;;;13.70;99.90;;;;;;6235658;28;20376;-81
2023/03/09 11:01:42;;;;;;;6.70;1.70;;;14.00;99.90;;;;;;6237009;28;20393;-81
2023/03/09 11:04:43;;;;;;;7.45;1.63;;;14.30;99.90;;;;;;6234732;28;20050;-81
2023/03/09 11:07:50;;;;;;;6.32;1.38;;;14.50;99.90;;;;;;6231013;28;20042;-81
2023/03/09 11:11:04;;;;;;;5.50;1.75;;;14.70;99.90;;;;;;6211306;28;20070;-81
2023/03/09 11:14:17;;;;;;;8.75;1.52;;;15.00;99.90;;;;;;6212831;28;20050;-81
2023/03/09 11:17:37;;;;;;;3.22;1.65;;;15.40;99.90;;;;;;6211974;28;20053;-81
2023/03/09 11:20:39;;;;;;;11.60;2.00;;;15.70;99.90;;;;;;6212694;28;20056;-80
2023/03/09 11:23:46;;;;;;;7.03;1.80;;;15.50;99.90;;;;;;6212141;28;20042;-80
2023/03/09 11:26:55;;;;;;;6.37;1.67;;;15.20;99.90;;;;;;6210077;28;20042;-80
2023/03/09 11:30:06;;;;;;;6.68;2.33;;;14.70;99.90;;;;;;6209715;28;20110;-80
2023/03/09 11:33:12;;;;;;;5.60;1.70;;;14.60;99.90;;;;;;6208624;28;20054;-80
2023/03/09 11:36:17;;;;;;;8.02;2.50;;;14.60;99.90;;;;;;6209234;28;20046;-80
2023/03/09 11:39:25;;;;;;;5.28;1.77;;;14.40;99.90;;;;;;6209543;28;20046;-80
2023/03/09 11:42:34;;;;;;;2.58;1.42;;;14.40;99.90;;;;;;6210788;28;20050;-80
2023/03/09 11:45:37;;;;;;;16.27;2.50;;;14.40;99.90;;;;;;6207824;28;20101;-80
2023/03/09 11:48:43;;;;;;;15.38;2.97;;;14.20;99.90;;;;;;6207985;28;20050;-80
2023/03/09 11:51:49;;;;;;;2.72;1.40;;;14.10;99.90;;;;;;6207232;28;20049;-80
2023/03/09 11:54:54;;;;;;;6.57;1.65;;;14.00;99.90;;;;;;6208706;28;20382;-81
2023/03/09 11:58:01;;;;;;;3.13;1.40;;;13.90;99.90;;;;;;6206310;28;20061;-81
2023/03/09 12:01:10;;;;;;;11.47;2.50;;;13.80;99.90;;;;;;6207924;28;20046;-81
2023/03/09 12:04:16;;;;;;;3.92;2.05;;;14.10;99.90;;;;;;6208090;28;20357;-81
2023/03/09 12:07:24;;;;;;;2.55;1.52;;;14.30;99.90;;;;;;6206446;28;20538;-81
2023/03/09 12:10:29;;;;;;;5.53;1.58;;;14.20;99.90;;;;;;6211816;28;20535;-81
2023/03/09 12:13:36;;;;;;;9.35;2.15;;;13.80;99.90;;;;;;6208694;28;20058;-81
2023/03/09 12:16:48;;;;;;;5.40;1.37;;;13.70;99.90;;;;;;6202020;28;20038;-81
2023/03/09 12:20:09;;;;;;;9.50;2.30;;;13.60;99.90;;;;;;6205752;28;20046;-81
2023/03/09 12:23:46;;;;;;;5.53;2.08;;;13.70;99.90;;;;;;6208835;28;20046;-81
2023/03/09 12:26:58;;;;;;;9.38;2.67;;;13.60;99.90;;;;;;6201984;28;20154;-81
2023/03/09 12:30:18;;;;;;;9.30;2.53;;;13.60;99.90;;;;;;6206704;28;20050;-80
2023/03/09 12:34:05;;;;;;;3.28;1.55;;;13.50;99.90;;;;;;6206320;28;20061;-83
2023/03/09 12:37:40;;;;;;;5.47;1.55;;;13.60;99.90;;;;;;6204317;28;20531;-80
2023/03/09 12:40:43;;;;;;;11.60;3.38;;;13.50;99.90;;;;;;6228142;28;20046;-81
2023/03/09 12:43:48;;;;;;;7.68;1.92;;;13.40;99.90;;;;;;6230868;28;20096;-80
2023/03/09 12:47:12;;;;;;;5.32;2.17;;;13.20;99.90;;;;;;6218868;28;20145;-82
2023/03/09 12:50:24;;;;;;;5.40;2.00;;;12.90;99.90;;;;;;6174349;28;20054;-80
2023/03/09 12:53:30;;;;;;;7.28;1.98;;;12.80;99.90;;;;;;6182163;28;20053;-80
2023/03/09 12:56:33;;;;;;;11.27;3.42;;;12.80;99.90;;;;;;6183056;28;20479;-80
2023/03/09 12:59:35;;;;;;;9.80;2.30;;;12.90;99.90;;;;;;6192690;28;21027;-80
2023/03/09 13:02:39;;;;;;;14.65;5.10;;;13.00;99.90;;;;;;6197343;28;20069;-80
2023/03/09 13:05:43;;;;;;;13.73;3.15;;;13.30;99.90;;;;;;6193490;28;20054;-80
2023/03/09 13:08:52;;;;;;;14.90;6.90;;;13.50;99.90;;;;;;6209400;28;20077;-80
2023/03/09 13:12:02;;;;;;;7.32;3.42;;;13.50;99.90;;;;;;6205273;28;20065;-80
2023/03/09 13:15:19;;;;;;;18.48;11.98;;;13.80;99.90;;;;;;6197646;28;20054;-80
2023/03/09 13:18:26;;;;;;;19.02;11.52;;;14.10;99.90;;;;;;6217453;28;20113;-79
2023/03/09 13:21:39;;;;;;;11.18;4.13;;;14.40;99.90;;;;;;6194146;28;20057;-79
2023/03/09 13:24:43;;;;;;;5.90;1.90;;;14.70;99.90;;;;;;6192956;28;20070;-79
2023/03/09 13:27:45;;;;;;;3.50;2.03;;;15.00;99.90;;;;;;6195790;28;20058;-79
2023/03/09 13:30:49;;;;;;;5.78;2.33;;;15.50;99.90;;;;;;6195741;28;20842;-79
2023/03/09 13:33:54;;;;;;;9.38;2.17;;;16.20;99.90;;;;;;6194797;28;20061;-79
2023/03/09 13:37:01;;;;;;;3.88;1.75;;;16.60;99.90;;;;;;6225564;28;20515;-79
2023/03/09 13:40:06;;;;;;;5.03;1.90;;;17.10;99.90;;;;;;6224711;28;20057;-79
2023/03/09 13:43:17;;;;;;;4.18;1.60;;;17.50;99.90;;;;;;6215699;28;20133;-79
2023/03/09 13:46:28;;;;;;;9.20;2.42;;;17.80;99.90;;;;;;6196214;28;20057;-79
2023/03/09 13:49:34;;;;;;;4.30;1.88;;;17.90;99.90;;;;;;6195841;28;20054;-79
2023/03/09 13:52:40;;;;;;;4.68;1.83;;;17.90;99.90;;;;;;6196262;28;20522;-79
2023/03/09 13:55:53;;;;;;;6.65;2.08;;;18.10;99.90;;;;;;6205894;28;20042;-79
2023/03/09 13:58:57;;;;;;;3.00;1.38;;;18.30;99.90;;;;;;6222114;28;20098;-79
2023/03/09 14:02:02;;;;;;;9.48;8.07;;;18.90;99.90;;;;;;6220827;28;20219;-79
2023/03/09 14:05:17;;;;;;;33.58;28.38;;;18.90;99.90;;;;;;6200516;28;20058;-79
2023/03/09 14:08:21;;;;;;;4.72;2.35;;;19.00;99.90;;;;;;6195883;28;20537;-79
2023/03/09 14:11:26;;;;;;;8.98;3.17;;;19.20;99.90;;;;;;6201087;28;20068;-79
2023/03/09 14:14:28;;;;;;;5.00;2.40;;;18.90;99.90;;;;;;6203122;28;20053;-79
2023/03/09 14:17:33;;;;;;;8.18;1.65;;;18.90;99.90;;;;;;6201360;28;20069;-79
2023/03/09 14:20:38;;;;;;;6.70;1.58;;;18.60;99.90;;;;;;6201036;28;20043;-78
2023/03/09 14:23:42;;;;;;;5.85;2.78;;;18.70;99.90;;;;;;6201279;28;20070;-79
2023/03/09 14:26:45;;;;;;;6.75;2.35;;;18.80;99.90;;;;;;6199866;28;20489;-79
2023/03/09 14:29:47;;;;;;;10.40;2.97;;;19.00;99.90;;;;;;6233598;28;20045;-79
2023/03/09 14:32:58;;;;;;;5.30;1.98;;;19.00;99.90;;;;;;6233073;28;20057;-79
2023/03/09 14:36:17;;;;;;;8.88;3.05;;;18.90;99.90;;;;;;6231335;28;20058;-79
2023/03/09 14:39:23;;;;;;;;;;;18.50;99.90;;;;;;6230731;28;20123;-79
2023/03/09 14:42:27;;;;;;;4.78;1.80;;;18.20;99.90;;;;;;6235446;28;19932;-79
2023/03/09 14:45:29;;;;;;;8.88;4.60;;;17.60;99.90;;;;;;6219887;28;20046;-80
2023/03/09 14:48:31;;;;;;;4.95;1.50;;;17.10;99.90;;;;;;6204379;28;20046;-79
2023/03/09 14:51:37;;;;;;;34.55;17.27;;;16.80;99.90;;;;;;6209848;28;20041;-80
2023/03/09 14:54:39;;;;;;;7.30;3.15;;;16.60;99.90;;;;;;6238283;28;20052;-80
2023/03/09 14:57:41;;;;;;;11.50;4.22;;;16.30;99.90;;;;;;6238338;28;20413;-80
2023/03/09 15:00:42;;;;;;;7.63;1.73;;;16.00;99.90;;;;;;6233391;28;20053;-78
2023/03/09 15:03:44;;;;;;;5.70;1.88;;;15.80;99.90;;;;;;6229756;28;20234;-80
2023/03/09 15:06:49;;;;;;;8.65;3.45;;;15.60;99.90;;;;;;6219140;28;20049;-81
2023/03/09 15:09:50;;;;;;;8.57;3.50;;;15.40;99.90;;;;;;6200694;28;20073;-81
2023/03/09 15:12:54;;;;;;;5.95;2.63;;;15.20;99.90;;;;;;6201549;28;20054;-80
2023/03/09 15:15:55;;;;;;;7.88;3.03;;;15.20;99.90;;;;;;6203505;28;20093;-81
2023/03/09 15:18:57;;;;;;;8.15;2.42;;;15.10;99.90;;;;;;6204318;28;20057;-80
2023/03/09 15:22:06;;;;;;;6.18;2.20;;;15.10;99.90;;;;;;6204906;28;20652;-81
2023/03/09 15:25:11;;;;;;;9.60;2.67;;;15.20;99.90;;;;;;6204610;28;20046;-79
2023/03/09 15:28:13;;;;;;;11.32;1.85;;;15.40;99.90;;;;;;6203235;28;20053;-80
2023/03/09 15:31:14;;;;;;;4.45;2.40;;;15.50;99.90;;;;;;6204356;28;20068;-79
2023/03/09 15:34:16;;;;;;;7.57;2.00;;;15.50;99.90;;;;;;6208497;28;20069;-80
2023/03/09 15:37:19;;;;;;;10.07;1.83;;;15.40;99.90;;;;;;6215670;28;20105;-80
2023/03/09 15:40:22;;;;;;;8.52;2.00;;;15.30;99.90;;;;;;6213554;28;20117;-80
2023/03/09 15:43:24;;;;;;;4.25;1.20;;;15.30;99.90;;;;;;6200257;28;20042;-81
2023/03/09 15:46:26;;;;;;;5.18;1.95;;;15.30;99.90;;;;;;6202154;28;20893;-80
2023/03/09 15:49:28;;;;;;;11.60;1.88;;;15.20;99.90;;;;;;6249190;28;20462;-81
2023/03/09 15:52:32;;;;;;;5.70;1.65;;;15.20;99.90;;;;;;6240144;28;20137;-80
2023/03/09 15:55:34;;;;;;;5.18;1.60;;;15.20;99.90;;;;;;6242941;28;20059;-80
2023/03/09 15:58:37;;;;;;;7.18;1.08;;;15.10;99.90;;;;;;6239302;28;20038;-80
2023/03/09 16:01:40;;;;;;;6.18;1.77;;;15.00;99.90;;;;;;6227321;28;20062;-80
2023/03/09 16:04:42;;;;;;;7.45;1.73;;;14.90;99.90;;;;;;6213615;28;20042;-81
2023/03/09 16:07:45;;;;;;;7.18;2.55;;;14.80;99.90;;;;;;6207546;28;20034;-80
2023/03/09 16:10:46;;;;;;;8.27;2.60;;;14.80;99.90;;;;;;6206384;28;20065;-80
2023/03/09 16:13:48;;;;;;;6.75;2.70;;;14.70;99.90;;;;;;6202947;28;20065;-79